createdAt,value
2019-05-15T00:04:49.214Z,100997.59
2019-05-15T00:14:53.007Z,100971.59
2019-05-15T00:24:58.151Z,100952.68
2019-05-15T00:35:01.859Z,100941.74
2019-05-15T00:45:09.489Z,100933.19
2019-05-15T00:55:12.889Z,100928.20
2019-05-15T01:05:18.522Z,100928.91
2019-05-15T01:15:21.791Z,100908.74
2019-05-15T01:25:25.365Z,100913.28
2019-05-15T01:35:29.044Z,100899.59
2019-05-15T01:45:32.617Z,100877.00
2019-05-15T01:55:36.248Z,100872.05
2019-05-15T02:05:40.017Z,100861.41
2019-05-15T02:15:45.210Z,100851.24
2019-05-15T02:25:48.786Z,100840.02
2019-05-15T02:35:52.349Z,100820.06
2019-05-15T02:45:55.954Z,100826.34
2019-05-15T02:56:00.353Z,100823.08
2019-05-15T03:06:04.031Z,100827.19
2019-05-15T03:16:10.038Z,100814.09
2019-05-15T03:26:14.331Z,100819.53
2019-05-15T03:36:23.488Z,100815.50
2019-05-15T03:46:23.198Z,100818.19
2019-05-15T03:56:29.420Z,100824.38
2019-05-15T04:06:32.068Z,100821.19
2019-05-15T04:16:38.753Z,100816.33
2019-05-15T04:26:41.046Z,100815.86
2019-05-15T04:36:44.985Z,100811.90
2019-05-15T04:46:49.877Z,100787.28
2019-05-15T04:56:53.676Z,100790.91
2019-05-15T05:06:58.700Z,100779.04
2019-05-15T05:17:02.468Z,100778.76
2019-05-15T05:27:08.587Z,100790.23
2019-05-15T05:37:11.403Z,100791.53
2019-05-15T05:47:14.968Z,100787.48
2019-05-15T05:57:19.344Z,100792.94
2019-05-15T06:07:23.105Z,100784.14
2019-05-15T06:17:28.080Z,100785.45
2019-05-15T06:27:31.844Z,100789.83
2019-05-15T06:37:35.443Z,100784.97
2019-05-15T06:47:39.607Z,100771.92
2019-05-15T06:57:43.432Z,100753.41
2019-05-15T07:07:48.849Z,100758.18
2019-05-15T07:17:52.323Z,100765.84
2019-05-15T07:27:58.095Z,100775.17
2019-05-15T07:38:01.265Z,100769.37
2019-05-15T07:48:05.105Z,100769.41
2019-05-15T07:58:08.733Z,100762.17
2019-05-15T08:08:12.381Z,100757.97
2019-05-15T08:18:17.987Z,100750.95
2019-05-15T08:28:21.266Z,100754.50
2019-05-15T08:38:24.837Z,100751.41
2019-05-15T08:48:28.410Z,100746.53
2019-05-15T08:58:31.996Z,100748.03
2019-05-15T09:08:35.560Z,100725.59
2019-05-15T09:18:39.396Z,100722.98
2019-05-15T09:28:43.121Z,100728.13
2019-05-15T09:38:48.863Z,100735.14
2019-05-15T09:48:52.281Z,100719.13
2019-05-15T09:58:58.022Z,100719.13
2019-05-15T10:09:01.174Z,100724.72
2019-05-15T10:19:05.159Z,100701.36
2019-05-15T10:29:09.231Z,100712.92
2019-05-15T10:39:13.124Z,100716.48
2019-05-15T10:49:18.796Z,100701.88
2019-05-15T10:59:22.008Z,100668.25
2019-05-15T11:09:25.582Z,100668.25
2019-05-15T11:19:35.789Z,100676.74
2019-05-15T11:29:34.489Z,100676.02
2019-05-15T11:39:46.090Z,100683.09
2019-05-15T11:49:43.804Z,100665.44
2019-05-15T11:59:54.767Z,100671.19
2019-05-15T12:09:54.166Z,100667.58
2019-05-15T12:20:05.425Z,100665.39
2019-05-15T12:30:03.365Z,100664.67
2019-05-15T13:00:19.827Z,100645.75
2019-05-15T13:10:24.396Z,100632.94
2019-05-15T13:20:28.797Z,100640.59
2019-05-15T13:30:32.666Z,100616.03
2019-05-15T13:40:41.062Z,100612.58
2019-05-15T13:50:41.884Z,100603.43
2019-05-15T14:00:45.504Z,100592.21
2019-05-15T14:10:49.104Z,100591.32
2019-05-15T14:20:52.718Z,100591.82
2019-05-15T14:30:58.628Z,100595.36
2019-05-15T14:41:01.618Z,100579.49
2019-05-15T14:51:06.164Z,100567.74
2019-05-15T15:01:12.151Z,100562.30
2019-05-15T15:11:17.813Z,100562.20
2019-05-15T15:21:22.712Z,100552.17
2019-05-15T15:31:28.725Z,100552.96
2019-05-15T15:41:31.570Z,100543.13
2019-05-15T15:51:35.158Z,100545.33
2019-05-15T16:01:39.269Z,100535.91
2019-05-15T16:11:43.165Z,100520.52
2019-05-15T16:21:49.043Z,100512.41
2019-05-15T16:31:52.342Z,100510.95
2019-05-15T16:41:55.940Z,100501.30
2019-05-15T16:51:59.761Z,100503.45
2019-05-15T17:02:03.372Z,100498.36
2019-05-15T17:12:08.743Z,100498.48
2019-05-15T17:22:12.530Z,100499.00
2019-05-15T17:32:18.436Z,100499.80
2019-05-15T17:42:22.140Z,100493.22
2019-05-15T17:52:26.033Z,100483.47
2019-05-15T18:02:29.750Z,100472.96
2019-05-15T18:12:33.502Z,100466.66
2019-05-15T18:22:38.019Z,100443.61
2019-05-15T18:32:42.278Z,100435.55
2019-05-15T18:42:46.121Z,100431.59
2019-05-15T18:52:49.775Z,100434.08
2019-05-15T19:02:53.491Z,100432.58
2019-05-15T19:12:58.105Z,100429.05
2019-05-15T19:23:02.275Z,100431.27
2019-05-15T19:33:07.868Z,100426.05
2019-05-15T19:43:11.777Z,100412.17
2019-05-15T19:53:15.474Z,100397.70
2019-05-15T20:03:19.131Z,100388.12
2019-05-15T20:13:22.790Z,100375.04
2019-05-15T20:23:28.736Z,100359.66
2019-05-15T20:33:32.654Z,100345.48
2019-05-15T20:43:38.284Z,100331.50
2019-05-15T20:53:41.705Z,100317.67
2019-05-15T21:03:45.668Z,100298.78
2019-05-15T21:13:49.488Z,100301.50
2019-05-15T21:23:53.593Z,100317.38
2019-05-15T21:33:58.883Z,100316.12
2019-05-15T21:44:02.649Z,100314.51
2019-05-15T21:54:06.511Z,100310.35
2019-05-15T22:04:10.178Z,100296.23
2019-05-15T22:14:14.026Z,100288.58
2019-05-15T22:24:18.280Z,100283.85
2019-05-15T22:34:22.084Z,100256.59
2019-05-15T22:44:28.175Z,100259.59
2019-05-15T22:54:31.718Z,100251.48
2019-05-15T23:04:37.843Z,100257.91
2019-05-15T23:14:41.516Z,100231.41
2019-05-15T23:24:45.242Z,100208.80
2019-05-15T23:34:49.292Z,100156.37
2019-05-15T23:44:52.963Z,100183.52
2019-05-15T23:54:58.850Z,100177.52
